createdAt,value
2023-01-27T00:00:21.759Z,103184.94
2023-01-27T00:02:50.588Z,103183.25
2023-01-27T00:05:20.040Z,103182.41
2023-01-27T00:07:48.671Z,103183.28
2023-01-27T00:10:21.002Z,103179.88
2023-01-27T00:13:07.265Z,103177.31
2023-01-27T00:15:38.471Z,103173.84
2023-01-27T00:18:07.968Z,103178.25
2023-01-27T00:20:54.347Z,103180.88
2023-01-27T00:23:42.323Z,103176.56
2023-01-27T00:26:15.407Z,103175.72
2023-01-27T00:28:46.515Z,103177.53
2023-01-27T00:31:37.000Z,103171.41
2023-01-27T00:34:20.948Z,103168.81
2023-01-27T00:36:49.598Z,103165.31
2023-01-27T00:39:19.367Z,103156.63
2023-01-27T00:41:47.996Z,103154.88
2023-01-27T00:44:16.672Z,103141.84
2023-01-27T00:46:46.949Z,103141.91
2023-01-27T00:49:16.092Z,103137.50
2023-01-27T00:51:44.724Z,103134.94
2023-01-27T00:54:14.639Z,103140.19
2023-01-27T00:56:45.225Z,103130.63
2023-01-27T00:59:13.987Z,103129.72
2023-01-27T01:01:42.755Z,103132.38
2023-01-27T01:04:13.110Z,103120.19
2023-01-27T01:06:41.721Z,103124.56
2023-01-27T01:09:10.313Z,103125.44
2023-01-27T01:11:38.872Z,103117.59
2023-01-27T01:14:09.803Z,103112.38
2023-01-27T01:16:38.442Z,103121.94
2023-01-27T01:19:07.169Z,103115.84
2023-01-27T01:21:37.387Z,103108.88
2023-01-27T01:24:06.987Z,103112.41
2023-01-27T01:26:36.751Z,103109.81
2023-01-27T01:29:05.511Z,103111.53
2023-01-27T01:31:34.691Z,103108.94
2023-01-27T01:34:03.461Z,103114.19
2023-01-27T01:36:32.087Z,103112.47
2023-01-27T01:39:02.293Z,103109.84
2023-01-27T01:41:31.138Z,103111.59
2023-01-27T01:44:00.753Z,103100.28
2023-01-27T01:46:30.420Z,103106.38
2023-01-27T01:49:03.214Z,103108.13
2023-01-27T01:51:36.234Z,103106.41
2023-01-27T01:54:10.982Z,103113.34
2023-01-27T01:56:43.833Z,103113.38
2023-01-27T01:59:19.063Z,103109.88
2023-01-27T02:01:48.375Z,103110.75
2023-01-27T02:04:21.261Z,103099.41
2023-01-27T02:06:55.096Z,103099.44
2023-01-27T02:09:26.365Z,103095.09
2023-01-27T02:11:55.352Z,103095.13
2023-01-27T02:14:24.006Z,103093.41
2023-01-27T02:16:52.710Z,103090.81
2023-01-27T02:19:29.362Z,103082.19
2023-01-27T02:21:59.399Z,103081.34
2023-01-27T02:24:38.163Z,103087.47
2023-01-27T02:27:09.246Z,103092.72
2023-01-27T02:29:37.796Z,103084.03
2023-01-27T02:32:06.804Z,103084.91
2023-01-27T02:34:39.024Z,103077.13
2023-01-27T02:37:11.134Z,103084.09
2023-01-27T02:39:44.752Z,103074.50
2023-01-27T02:42:17.156Z,103072.78
2023-01-27T02:44:45.828Z,103068.44
2023-01-27T02:47:14.714Z,103070.19
2023-01-27T02:49:43.439Z,103074.53
2023-01-27T02:52:11.854Z,103076.28
2023-01-27T02:54:41.281Z,103064.97
2023-01-27T02:57:09.878Z,103071.94
2023-01-27T02:59:40.271Z,103082.38
2023-01-27T03:02:08.922Z,103085.00
2023-01-27T03:04:43.562Z,103085.84
2023-01-27T03:07:12.262Z,103078.91
2023-01-27T03:09:40.894Z,103086.75
2023-01-27T03:12:22.853Z,103093.69
2023-01-27T03:15:12.288Z,103090.19
2023-01-27T03:17:58.394Z,103084.09
2023-01-27T03:20:33.019Z,103075.38
2023-01-27T03:23:01.680Z,103081.50
2023-01-27T03:25:31.422Z,103070.16
2023-01-27T03:28:02.028Z,103065.84
2023-01-27T03:30:33.242Z,103062.41
2023-01-27T03:33:03.863Z,103064.16
2023-01-27T03:35:39.107Z,103059.88
2023-01-27T03:38:29.515Z,103065.13
2023-01-27T03:41:17.633Z,103061.72
2023-01-27T03:44:03.818Z,103062.66
2023-01-27T03:46:34.150Z,103067.88
2023-01-27T03:49:02.804Z,103063.53
2023-01-27T03:51:31.354Z,103063.53
2023-01-27T03:54:01.473Z,103049.63
2023-01-27T03:56:31.383Z,103046.13
2023-01-27T03:59:00.096Z,103045.28
2023-01-27T04:01:29.820Z,103054.84
2023-01-27T04:04:21.141Z,103054.84
2023-01-27T04:07:03.147Z,103043.56
2023-01-27T04:09:34.355Z,103047.91
2023-01-27T04:12:05.463Z,103047.06
2023-01-27T04:14:35.982Z,103051.44
2023-01-27T04:17:07.019Z,103052.28
2023-01-27T04:19:37.452Z,103054.03
2023-01-27T04:22:07.372Z,103047.06
2023-01-27T04:24:43.976Z,103041.88
2023-01-27T04:27:17.032Z,103044.47
2023-01-27T04:29:45.993Z,103044.47
2023-01-27T04:32:15.932Z,103054.00
2023-01-27T04:34:46.982Z,103046.16
2023-01-27T04:37:15.540Z,103044.38
2023-01-27T04:39:46.262Z,103048.75
2023-01-27T04:42:16.318Z,103054.84
2023-01-27T04:44:45.897Z,103051.34
2023-01-27T04:47:15.406Z,103044.38
2023-01-27T04:49:44.096Z,103054.81
2023-01-27T04:52:14.172Z,103053.94
2023-01-27T04:54:42.643Z,103059.16
2023-01-27T04:57:11.729Z,103063.50
2023-01-27T04:59:40.393Z,103060.91
2023-01-27T05:02:09.053Z,103055.69
2023-01-27T05:04:37.652Z,103059.19
2023-01-27T05:07:06.523Z,103056.59
2023-01-27T05:09:36.825Z,103049.63
2023-01-27T05:12:05.912Z,103046.16
2023-01-27T05:14:34.593Z,103053.13
2023-01-27T05:17:03.320Z,103050.50
2023-01-27T05:19:32.184Z,103054.81
2023-01-27T05:22:00.882Z,103065.25
2023-01-27T05:24:29.408Z,103060.00
2023-01-27T05:26:59.655Z,103065.22
2023-01-27T05:29:28.473Z,103061.72
2023-01-27T05:31:57.183Z,103061.72
2023-01-27T05:34:26.111Z,103061.69
2023-01-27T05:36:55.045Z,103059.97
2023-01-27T05:39:23.742Z,103064.28
2023-01-27T05:41:52.288Z,103058.22
2023-01-27T05:44:23.526Z,103049.53
2023-01-27T05:46:52.053Z,103061.69
2023-01-27T05:49:24.836Z,103057.34
2023-01-27T05:51:54.451Z,103068.66
2023-01-27T05:54:23.161Z,103060.81
2023-01-27T05:56:51.840Z,103059.94
2023-01-27T05:59:22.020Z,103059.94
2023-01-27T06:01:50.595Z,103064.25
2023-01-27T06:04:19.472Z,103059.03
2023-01-27T06:06:48.106Z,103066.06
2023-01-27T06:09:17.586Z,103073.03
2023-01-27T06:11:46.172Z,103058.25
2023-01-27T06:14:15.093Z,103060.88
2023-01-27T06:16:47.595Z,103060.88
2023-01-27T06:19:16.346Z,103063.50
2023-01-27T06:21:44.993Z,103063.50
2023-01-27T06:24:13.865Z,103055.69
2023-01-27T06:26:42.597Z,103050.47
2023-01-27T06:29:11.224Z,103053.06
2023-01-27T06:31:40.014Z,103053.97
2023-01-27T06:34:10.111Z,103056.56
2023-01-27T06:36:41.619Z,103045.28
2023-01-27T06:39:10.163Z,103047.91
2023-01-27T06:41:38.867Z,103057.47
2023-01-27T06:44:07.665Z,103052.28
2023-01-27T06:46:36.599Z,103058.34
2023-01-27T06:49:05.267Z,103046.22
2023-01-27T06:51:35.747Z,103047.94
2023-01-27T06:54:05.255Z,103053.19
2023-01-27T06:56:33.965Z,103051.41
2023-01-27T06:59:02.704Z,103048.81
2023-01-27T07:01:31.247Z,103047.91
2023-01-27T07:03:59.975Z,103050.53
2023-01-27T07:06:28.581Z,103044.41
2023-01-27T07:08:58.862Z,103046.13
2023-01-27T07:11:27.625Z,103047.84
2023-01-27T07:13:56.204Z,103043.50
2023-01-27T07:16:25.224Z,103049.56
2023-01-27T07:18:56.799Z,103047.84
2023-01-27T07:21:27.274Z,103049.56
2023-01-27T07:23:57.521Z,103056.53
2023-01-27T07:26:26.178Z,103053.94
2023-01-27T07:28:55.077Z,103056.50
2023-01-27T07:31:24.043Z,103058.25
2023-01-27T07:33:53.588Z,103059.09
2023-01-27T07:36:22.163Z,103062.59
2023-01-27T07:38:52.531Z,103069.53
2023-01-27T07:41:25.274Z,103072.13
2023-01-27T07:43:53.849Z,103079.09
2023-01-27T07:46:22.745Z,103072.09
2023-01-27T07:48:51.362Z,103070.34
2023-01-27T07:51:20.570Z,103064.28
2023-01-27T07:53:49.310Z,103072.09
2023-01-27T07:56:17.948Z,103061.63
2023-01-27T07:58:48.664Z,103068.53
2023-01-27T08:01:18.349Z,103075.50
2023-01-27T08:03:46.996Z,103072.91
2023-01-27T08:06:16.026Z,103074.66
2023-01-27T08:08:45.846Z,103072.00
2023-01-27T08:11:16.327Z,103078.97
2023-01-27T08:13:45.063Z,103081.59
2023-01-27T08:16:16.672Z,103082.47
2023-01-27T08:18:45.434Z,103087.72
2023-01-27T08:21:15.321Z,103094.66
2023-01-27T08:23:45.589Z,103096.41
2023-01-27T08:26:14.590Z,103099.88
2023-01-27T08:28:43.577Z,103102.53
2023-01-27T08:31:16.595Z,103104.28
2023-01-27T08:33:47.574Z,103122.50
2023-01-27T08:36:18.678Z,103117.28
2023-01-27T08:38:49.851Z,103117.25
2023-01-27T08:41:20.642Z,103119.00
2023-01-27T08:43:53.745Z,103122.47
2023-01-27T08:46:23.900Z,103129.44
2023-01-27T08:48:52.583Z,103130.28
2023-01-27T08:51:21.366Z,103118.94
2023-01-27T08:53:50.057Z,103126.78
2023-01-27T08:56:18.898Z,103127.59
2023-01-27T08:58:48.837Z,103129.38
2023-01-27T09:01:18.419Z,103129.34
2023-01-27T09:03:48.561Z,103126.75
2023-01-27T09:06:18.862Z,103118.88
2023-01-27T09:09:11.143Z,103109.25
2023-01-27T09:11:43.440Z,103094.41
2023-01-27T09:14:13.101Z,103097.78
2023-01-27T09:16:42.249Z,103097.81
2023-01-27T09:19:12.284Z,103093.41
2023-01-27T09:21:40.845Z,103085.50
2023-01-27T09:24:09.646Z,103084.59
2023-01-27T09:26:38.466Z,103080.25
2023-01-27T09:29:07.461Z,103079.41
2023-01-27T09:31:36.061Z,103077.59
2023-01-27T09:34:05.084Z,103076.63
2023-01-27T09:36:42.432Z,103080.06
2023-01-27T09:39:11.315Z,103069.53
2023-01-27T09:42:16.012Z,103070.28
2023-01-27T09:45:05.120Z,103066.53
2023-01-27T09:47:50.107Z,103072.44
2023-01-27T09:50:35.819Z,103063.56
2023-01-27T09:53:22.917Z,103068.28
2023-01-27T09:55:57.400Z,103055.44
2023-01-27T09:58:37.413Z,103049.34
2023-01-27T10:01:18.647Z,103045.59
2023-01-27T10:04:16.376Z,103038.22
2023-01-27T10:06:58.056Z,103041.59
2023-01-27T10:09:51.119Z,103027.97
2023-01-27T10:12:36.129Z,103027.53
2023-01-27T10:56:42.695Z,102998.81
2023-01-27T10:59:22.588Z,103001.28
2023-01-27T11:01:58.713Z,103003.72
2023-01-27T11:04:36.844Z,103013.06
2023-01-27T11:07:08.395Z,103012.41
2023-01-27T11:09:38.568Z,103014.88
2023-01-27T11:12:14.057Z,103012.78
2023-01-27T11:14:47.895Z,103008.38
2023-01-27T11:17:32.216Z,103009.72
2023-01-27T11:20:07.854Z,103015.34
2023-01-27T11:22:43.836Z,103015.59
2023-01-27T11:25:25.312Z,103025.25
2023-01-27T11:28:08.442Z,103031.34
2023-01-27T11:30:44.720Z,103038.19
2023-01-27T11:33:23.064Z,103040.72
2023-01-27T11:35:53.155Z,103034.34
2023-01-27T11:38:27.165Z,103029.78
2023-01-27T11:40:56.103Z,103027.06
2023-01-27T11:43:28.201Z,103019.97
2023-01-27T11:46:03.433Z,103023.59
2023-01-27T11:48:41.466Z,103021.78
2023-01-27T11:51:21.047Z,103022.81
2023-01-27T11:53:58.111Z,103027.13
2023-01-27T11:56:29.139Z,103018.19
2023-01-27T11:59:06.270Z,103022.44
2023-01-27T12:01:48.227Z,103017.25
2023-01-27T12:04:26.424Z,103016.41
2023-01-27T12:06:58.722Z,103012.78
2023-01-27T12:09:36.209Z,103022.16
2023-01-27T12:12:24.710Z,103018.88
2023-01-27T12:14:58.192Z,103021.50
2023-01-27T12:17:32.650Z,103009.03
2023-01-27T12:20:06.606Z,103008.06
2023-01-27T12:22:37.844Z,103002.63
2023-01-27T12:25:09.283Z,102999.63
2023-01-27T12:27:43.505Z,102993.25
2023-01-27T12:30:23.338Z,102969.13
2023-01-27T12:32:53.809Z,102958.69
2023-01-27T12:35:25.564Z,102938.63
2023-01-27T12:37:58.915Z,102932.34
2023-01-27T12:40:31.900Z,102929.53
2023-01-27T12:43:12.799Z,102926.66
2023-01-27T12:45:43.682Z,102921.66
2023-01-27T12:48:23.280Z,102916.28
2023-01-27T12:51:06.586Z,102914.03
2023-01-27T12:53:35.273Z,102911.28
2023-01-27T12:56:13.775Z,102913.91
2023-01-27T12:58:46.063Z,102905.69
2023-01-27T13:01:28.201Z,102894.16
2023-01-27T13:03:59.859Z,102898.91
2023-01-27T13:06:36.543Z,102897.78
2023-01-27T13:09:06.222Z,102901.16
2023-01-27T13:11:40.534Z,102892.69
2023-01-27T13:14:16.605Z,102889.91
2023-01-27T13:16:53.014Z,102881.38
2023-01-27T13:19:25.638Z,102878.13
2023-01-27T13:21:59.985Z,102868.59
2023-01-27T13:24:38.480Z,102872.69
2023-01-27T13:27:15.351Z,102866.44
2023-01-27T13:29:49.067Z,102877.41
2023-01-27T13:32:25.503Z,102871.19
2023-01-27T13:35:04.167Z,102868.00
2023-01-27T13:37:37.237Z,102859.75
2023-01-27T13:40:13.050Z,102850.56
2023-01-27T13:42:47.952Z,102854.34
2023-01-27T13:45:20.109Z,102858.06
2023-01-27T13:47:55.166Z,102854.00
2023-01-27T13:50:31.612Z,102857.25
2023-01-27T13:53:09.870Z,102853.59
2023-01-27T13:56:05.641Z,102840.88
2023-01-27T13:58:47.450Z,102834.31
2023-01-27T14:01:24.678Z,102834.03
2023-01-27T14:04:30.904Z,102823.75
2023-01-27T14:07:10.376Z,102814.13
2023-01-27T14:09:58.061Z,102811.69
2023-01-27T14:12:41.982Z,102812.31
2023-01-27T14:15:24.846Z,102811.78
2023-01-27T14:18:02.123Z,102814.41
2023-01-27T14:20:51.082Z,102811.13
2023-01-27T14:23:35.245Z,102806.25
2023-01-27T14:26:19.082Z,102803.94
2023-01-27T14:29:03.182Z,102804.25
2023-01-27T14:31:49.847Z,102801.78
2023-01-27T14:34:33.573Z,102802.19
2023-01-27T14:37:17.026Z,102799.13
2023-01-27T14:39:56.415Z,102808.22
2023-01-27T14:42:34.216Z,102801.25
2023-01-27T14:45:09.040Z,102810.19
2023-01-27T14:47:48.295Z,102805.91
2023-01-27T14:50:30.771Z,102794.69
2023-01-27T14:53:22.486Z,102809.41
2023-01-27T14:56:02.979Z,102816.94
2023-01-27T14:58:47.424Z,102819.94
2023-01-27T15:01:35.262Z,102821.81
2023-01-27T15:04:27.837Z,102818.72
2023-01-27T15:07:01.678Z,102802.25
2023-01-27T15:09:42.217Z,102785.81
2023-01-27T15:12:28.219Z,102783.25
2023-01-27T15:15:31.277Z,102777.81
2023-01-27T15:18:13.042Z,102777.03
2023-01-27T15:21:01.117Z,102782.38
2023-01-27T15:23:52.171Z,102773.94
2023-01-27T15:26:26.505Z,102773.56
2023-01-27T15:28:55.992Z,102781.72
2023-01-27T15:31:27.962Z,102778.53
2023-01-27T15:34:17.525Z,102777.28
2023-01-27T15:37:13.605Z,102780.03
2023-01-27T15:40:04.370Z,102786.25
2023-01-27T15:43:06.397Z,102790.06
2023-01-27T15:45:36.952Z,102791.94
2023-01-27T15:48:12.327Z,102785.16
2023-01-27T15:50:49.227Z,102785.19
2023-01-27T15:53:27.422Z,102793.03
2023-01-27T15:55:59.262Z,102792.19
2023-01-27T15:58:36.055Z,102792.44
2023-01-27T16:01:10.808Z,102802.19
2023-01-27T16:03:44.717Z,102803.09
2023-01-27T16:06:18.484Z,102797.13
2023-01-27T16:08:53.588Z,102812.94
2023-01-27T16:11:39.737Z,102813.88
2023-01-27T16:14:38.207Z,102813.91
2023-01-27T16:17:20.987Z,102814.88
2023-01-27T16:19:58.517Z,102821.88
2023-01-27T16:22:29.140Z,102823.81
2023-01-27T16:25:05.723Z,102825.59
2023-01-27T16:27:46.730Z,102824.81
2023-01-27T16:30:22.086Z,102830.09
2023-01-27T16:33:03.730Z,102824.94
2023-01-27T16:35:36.109Z,102825.91
2023-01-27T16:38:11.315Z,102825.06
2023-01-27T16:40:40.374Z,102822.59
2023-01-27T16:43:18.468Z,102818.22
2023-01-27T16:45:50.721Z,102823.50
2023-01-27T16:48:38.024Z,102826.97
2023-01-27T16:51:16.900Z,102822.59
2023-01-27T16:53:49.423Z,102828.72
2023-01-27T16:56:25.293Z,102823.53
2023-01-27T16:59:00.760Z,102818.38
2023-01-27T17:01:37.488Z,102813.19
2023-01-27T17:04:19.573Z,102818.47
2023-01-27T17:06:50.335Z,102822.13
2023-01-27T17:09:25.806Z,102825.69
2023-01-27T17:11:55.884Z,102822.22
2023-01-27T17:14:32.191Z,102834.53
2023-01-27T17:17:04.865Z,102833.75
2023-01-27T17:19:36.339Z,102825.94
2023-01-27T17:22:10.448Z,102826.91
2023-01-27T17:24:45.620Z,102831.28
2023-01-27T17:27:25.183Z,102833.91
2023-01-27T17:29:57.504Z,102833.91
2023-01-27T17:32:30.510Z,102832.19
2023-01-27T17:35:02.090Z,102826.94
2023-01-27T17:37:32.765Z,102829.66
2023-01-27T17:40:03.761Z,102828.84
2023-01-27T17:42:34.653Z,102832.34
2023-01-27T17:45:25.975Z,102839.34
2023-01-27T17:47:59.440Z,102836.72
2023-01-27T17:50:36.427Z,102835.00
2023-01-27T17:53:09.983Z,102841.19
2023-01-27T17:55:39.426Z,102836.06
2023-01-27T17:58:16.447Z,102836.09
2023-01-27T18:00:46.873Z,102843.19
2023-01-27T18:03:22.516Z,102838.03
2023-01-27T18:05:54.505Z,102848.56
2023-01-27T18:08:27.547Z,102856.47
2023-01-27T18:11:11.361Z,102869.59
2023-01-27T18:13:42.261Z,102874.88
2023-01-27T18:16:17.302Z,102872.25
2023-01-27T18:18:49.639Z,102878.34
2023-01-27T18:21:23.351Z,102875.69
2023-01-27T18:23:55.870Z,102878.31
2023-01-27T18:26:28.950Z,102886.16
2023-01-27T18:29:02.051Z,102871.38
2023-01-27T18:31:34.870Z,102877.53
2023-01-27T18:34:24.358Z,102881.09
2023-01-27T18:36:58.035Z,102880.22
2023-01-27T18:39:32.829Z,102876.84
2023-01-27T18:42:01.681Z,102880.41
2023-01-27T18:44:35.109Z,102887.41
2023-01-27T18:47:27.865Z,102881.44
2023-01-27T18:50:24.109Z,102884.13
2023-01-27T18:52:54.118Z,102875.50
2023-01-27T18:55:24.729Z,102862.63
2023-01-27T18:57:55.247Z,102853.19
2023-01-27T19:00:26.517Z,102853.31
2023-01-27T19:02:59.312Z,102863.84
2023-01-27T19:05:32.694Z,102862.13
2023-01-27T19:08:02.577Z,102865.75
2023-01-27T19:10:33.239Z,102866.69
2023-01-27T19:13:03.674Z,102864.19
2023-01-27T19:15:34.394Z,102862.44
2023-01-27T19:18:14.126Z,102863.34
2023-01-27T19:20:44.221Z,102866.06
2023-01-27T19:23:16.036Z,102867.88
2023-01-27T19:25:47.313Z,102858.41
2023-01-27T19:28:19.362Z,102850.63
2023-01-27T19:30:48.455Z,102855.06
2023-01-27T19:33:22.688Z,102848.19
2023-01-27T19:35:55.538Z,102860.41
2023-01-27T19:38:25.354Z,102850.06
2023-01-27T19:40:53.853Z,102850.03
2023-01-27T19:43:22.673Z,102857.91
2023-01-27T19:45:53.886Z,102861.38
2023-01-27T19:48:25.276Z,102864.03
2023-01-27T19:50:55.324Z,102851.81
2023-01-27T19:53:26.275Z,102855.41
2023-01-27T19:55:58.299Z,102865.88
2023-01-27T19:58:29.964Z,102861.50
2023-01-27T20:00:59.509Z,102864.97
2023-01-27T20:03:28.213Z,102870.19
2023-01-27T20:05:58.446Z,102870.22
2023-01-27T20:08:27.112Z,102882.41
2023-01-27T20:10:55.727Z,102870.22
2023-01-27T20:13:24.390Z,102865.03
2023-01-27T20:15:52.782Z,102874.69
2023-01-27T20:18:23.788Z,102865.22
2023-01-27T20:20:52.650Z,102864.47
2023-01-27T20:23:22.974Z,102870.59
2023-01-27T20:25:51.583Z,102868.81
2023-01-27T20:28:21.170Z,102862.75
2023-01-27T20:30:49.714Z,102872.41
2023-01-27T20:33:18.409Z,102875.94
2023-01-27T20:35:46.889Z,102885.47
2023-01-27T20:38:15.484Z,102885.47
2023-01-27T20:40:45.598Z,102892.41
2023-01-27T20:43:21.157Z,102889.78
2023-01-27T20:45:55.658Z,102902.81
2023-01-27T20:48:25.416Z,102905.44
2023-01-27T20:51:00.654Z,102902.81
2023-01-27T20:53:33.329Z,102900.22
2023-01-27T20:56:04.374Z,102904.59
2023-01-27T20:58:33.111Z,102910.75
2023-01-27T21:01:09.488Z,102911.59
2023-01-27T21:03:53.827Z,102908.13
2023-01-27T21:06:22.986Z,102910.75
2023-01-27T21:08:53.084Z,102911.63
2023-01-27T21:11:24.305Z,102915.94
2023-01-27T21:13:53.501Z,102917.66
2023-01-27T21:16:22.482Z,102921.97
2023-01-27T21:18:51.557Z,102911.53
2023-01-27T21:21:25.982Z,102918.47
2023-01-27T21:23:56.170Z,102904.56
2023-01-27T21:26:26.419Z,102902.78
2023-01-27T21:28:54.917Z,102907.19
2023-01-27T21:31:30.546Z,102906.38
2023-01-27T21:34:01.636Z,102900.28
2023-01-27T21:36:30.988Z,102903.81
2023-01-27T21:39:02.044Z,102898.56
2023-01-27T21:41:50.589Z,102890.75
2023-01-27T21:44:38.814Z,102884.66
2023-01-27T21:47:09.362Z,102882.97
2023-01-27T21:49:53.661Z,102876.03
2023-01-27T21:52:22.425Z,102877.84
2023-01-27T21:54:50.904Z,102865.69
2023-01-27T21:57:20.933Z,102869.25
2023-01-27T21:59:49.748Z,102864.13
2023-01-27T22:02:20.747Z,102871.13
2023-01-27T22:04:49.618Z,102866.78
2023-01-27T22:07:19.696Z,102857.22
2023-01-27T22:09:48.421Z,102853.81
2023-01-27T22:12:18.325Z,102853.00
2023-01-27T22:14:48.494Z,102852.16
2023-01-27T22:17:19.935Z,102848.63
2023-01-27T22:19:49.185Z,102846.84
2023-01-27T22:22:17.869Z,102844.19
2023-01-27T22:24:46.927Z,102842.41
2023-01-27T22:27:16.767Z,102847.56
2023-01-27T22:29:47.915Z,102847.50
2023-01-27T22:32:17.870Z,102850.06
2023-01-27T22:34:49.787Z,102848.31
2023-01-27T22:37:18.447Z,102852.63
2023-01-27T22:39:47.185Z,102850.88
2023-01-27T22:42:16.828Z,102860.53
2023-01-27T22:44:45.104Z,102855.31
2023-01-27T22:47:15.247Z,102854.53
2023-01-27T22:49:43.702Z,102861.50
2023-01-27T22:52:12.525Z,102871.09
2023-01-27T22:54:41.042Z,102872.84
2023-01-27T22:57:10.160Z,102872.00
2023-01-27T22:59:38.930Z,102855.53
2023-01-27T23:02:07.673Z,102859.88
2023-01-27T23:04:37.844Z,102856.38
2023-01-27T23:07:06.473Z,102856.38
2023-01-27T23:09:35.007Z,102853.72
2023-01-27T23:12:03.663Z,102853.72
2023-01-27T23:14:32.434Z,102845.84
2023-01-27T23:17:01.127Z,102858.03
2023-01-27T23:19:30.386Z,102845.84
2023-01-27T23:22:00.145Z,102844.09
2023-01-27T23:24:30.352Z,102851.88
2023-01-27T23:27:00.953Z,102854.47
2023-01-27T23:29:30.055Z,102857.88
2023-01-27T23:31:58.946Z,102862.19
2023-01-27T23:34:30.602Z,102858.63
2023-01-27T23:37:02.882Z,102860.38
2023-01-27T23:39:31.466Z,102853.38
2023-01-27T23:42:00.061Z,102856.06
2023-01-27T23:44:28.992Z,102849.94
2023-01-27T23:46:58.757Z,102843.84
2023-01-27T23:49:27.569Z,102839.47
2023-01-27T23:51:56.054Z,102837.66
2023-01-27T23:54:26.166Z,102836.78
2023-01-27T23:56:54.932Z,102836.75
2023-01-27T23:59:23.507Z,102834.13
